sensor_id;sensor_type;location;lat;lon;timestamp;pressure;altitude;pressure_sealevel;temperature
75822;BMP180;64454;51.984;9.838;2023-04-24T00:01:03;98785.00;;;12.80
75822;BMP180;64454;51.984;9.838;2023-04-24T00:03:32;98773.00;;;12.80
75822;BMP180;64454;51.984;9.838;2023-04-24T00:06:00;98773.00;;;12.80
75822;BMP180;64454;51.984;9.838;2023-04-24T00:08:28;98767.00;;;12.80
75822;BMP180;64454;51.984;9.838;2023-04-24T00:10:54;98766.00;;;12.90
75822;BMP180;64454;51.984;9.838;2023-04-24T00:13:22;98774.00;;;12.90
75822;BMP180;64454;51.984;9.838;2023-04-24T00:15:49;98771.00;;;12.90
75822;BMP180;64454;51.984;9.838;2023-04-24T00:18:16;98768.00;;;12.80
75822;BMP180;64454;51.984;9.838;2023-04-24T00:20:43;98775.00;;;13.00
75822;BMP180;64454;51.984;9.838;2023-04-24T00:23:10;98772.00;;;12.80
75822;BMP180;64454;51.984;9.838;2023-04-24T00:25:37;98774.00;;;12.90
75822;BMP180;64454;51.984;9.838;2023-04-24T00:28:03;98771.00;;;12.90
75822;BMP180;64454;51.984;9.838;2023-04-24T00:30:32;98776.00;;;12.70
75822;BMP180;64454;51.984;9.838;2023-04-24T00:32:59;98774.00;;;12.70
75822;BMP180;64454;51.984;9.838;2023-04-24T00:35:26;98775.00;;;12.80
75822;BMP180;64454;51.984;9.838;2023-04-24T00:37:52;98770.00;;;12.40
75822;BMP180;64454;51.984;9.838;2023-04-24T00:40:20;98777.00;;;12.50
75822;BMP180;64454;51.984;9.838;2023-04-24T00:42:47;98794.00;;;12.70
75822;BMP180;64454;51.984;9.838;2023-04-24T00:45:14;98796.00;;;12.40
75822;BMP180;64454;51.984;9.838;2023-04-24T00:47:42;98792.00;;;12.50
75822;BMP180;64454;51.984;9.838;2023-04-24T00:50:09;98780.00;;;12.60
75822;BMP180;64454;51.984;9.838;2023-04-24T00:52:36;98781.00;;;12.50
75822;BMP180;64454;51.984;9.838;2023-04-24T00:55:07;98777.00;;;12.50
75822;BMP180;64454;51.984;9.838;2023-04-24T00:57:34;98773.00;;;12.70
75822;BMP180;64454;51.984;9.838;2023-04-24T01:00:01;98771.00;;;12.50
75822;BMP180;64454;51.984;9.838;2023-04-24T01:02:29;98767.00;;;12.50
75822;BMP180;64454;51.984;9.838;2023-04-24T01:05:00;98773.00;;;12.40
75822;BMP180;64454;51.984;9.838;2023-04-24T01:07:27;98770.00;;;12.50
75822;BMP180;64454;51.984;9.838;2023-04-24T01:09:54;98775.00;;;12.40
75822;BMP180;64454;51.984;9.838;2023-04-24T01:12:21;98777.00;;;12.30
75822;BMP180;64454;51.984;9.838;2023-04-24T01:14:48;98774.00;;;12.20
75822;BMP180;64454;51.984;9.838;2023-04-24T01:17:15;98778.00;;;12.30
75822;BMP180;64454;51.984;9.838;2023-04-24T01:19:42;98773.00;;;12.40
75822;BMP180;64454;51.984;9.838;2023-04-24T01:22:13;98780.00;;;12.60
75822;BMP180;64454;51.984;9.838;2023-04-24T01:24:40;98778.00;;;12.40
75822;BMP180;64454;51.984;9.838;2023-04-24T01:27:09;98777.00;;;12.20
75822;BMP180;64454;51.984;9.838;2023-04-24T01:29:36;98774.00;;;12.60
75822;BMP180;64454;51.984;9.838;2023-04-24T01:32:05;98773.00;;;12.30
75822;BMP180;64454;51.984;9.838;2023-04-24T01:34:32;98770.00;;;12.20
75822;BMP180;64454;51.984;9.838;2023-04-24T01:37:00;98758.00;;;12.10
75822;BMP180;64454;51.984;9.838;2023-04-24T01:39:28;98762.00;;;12.40
75822;BMP180;64454;51.984;9.838;2023-04-24T01:41:56;98766.00;;;12.60
75822;BMP180;64454;51.984;9.838;2023-04-24T01:44:23;98756.00;;;12.40
75822;BMP180;64454;51.984;9.838;2023-04-24T01:46:50;98745.00;;;12.50
75822;BMP180;64454;51.984;9.838;2023-04-24T01:49:17;98745.00;;;12.20
75822;BMP180;64454;51.984;9.838;2023-04-24T01:51:45;98750.00;;;12.40
75822;BMP180;64454;51.984;9.838;2023-04-24T01:54:12;98748.00;;;11.90
75822;BMP180;64454;51.984;9.838;2023-04-24T01:56:42;98755.00;;;12.10
75822;BMP180;64454;51.984;9.838;2023-04-24T01:59:11;98754.00;;;12.30
75822;BMP180;64454;51.984;9.838;2023-04-24T02:01:39;98754.00;;;12.00
75822;BMP180;64454;51.984;9.838;2023-04-24T02:04:07;98750.00;;;12.20
75822;BMP180;64454;51.984;9.838;2023-04-24T02:06:34;98749.00;;;12.20
75822;BMP180;64454;51.984;9.838;2023-04-24T02:09:01;98746.00;;;12.10
75822;BMP180;64454;51.984;9.838;2023-04-24T02:11:28;98749.00;;;12.20
75822;BMP180;64454;51.984;9.838;2023-04-24T02:13:56;98747.00;;;12.20
75822;BMP180;64454;51.984;9.838;2023-04-24T02:16:23;98757.00;;;12.00
75822;BMP180;64454;51.984;9.838;2023-04-24T02:18:50;98749.00;;;12.10
75822;BMP180;64454;51.984;9.838;2023-04-24T02:21:17;98762.00;;;12.00
75822;BMP180;64454;51.984;9.838;2023-04-24T02:23:44;98756.00;;;11.90
75822;BMP180;64454;51.984;9.838;2023-04-24T02:26:11;98756.00;;;11.90
75822;BMP180;64454;51.984;9.838;2023-04-24T02:28:38;98757.00;;;12.10
75822;BMP180;64454;51.984;9.838;2023-04-24T02:31:06;98750.00;;;11.80
75822;BMP180;64454;51.984;9.838;2023-04-24T02:33:33;98755.00;;;11.90
75822;BMP180;64454;51.984;9.838;2023-04-24T02:36:01;98739.00;;;11.80
75822;BMP180;64454;51.984;9.838;2023-04-24T02:38:28;98741.00;;;12.00
75822;BMP180;64454;51.984;9.838;2023-04-24T02:40:55;98746.00;;;12.00
75822;BMP180;64454;51.984;9.838;2023-04-24T02:43:22;98748.00;;;12.00
75822;BMP180;64454;51.984;9.838;2023-04-24T02:45:49;98746.00;;;11.90
75822;BMP180;64454;51.984;9.838;2023-04-24T02:48:17;98744.00;;;12.00
75822;BMP180;64454;51.984;9.838;2023-04-24T02:50:46;98739.00;;;12.20
75822;BMP180;64454;51.984;9.838;2023-04-24T02:53:13;98750.00;;;11.70
75822;BMP180;64454;51.984;9.838;2023-04-24T02:55:40;98735.00;;;11.90
75822;BMP180;64454;51.984;9.838;2023-04-24T02:58:06;98741.00;;;11.80
75822;BMP180;64454;51.984;9.838;2023-04-24T03:00:33;98732.00;;;11.70
75822;BMP180;64454;51.984;9.838;2023-04-24T03:03:00;98720.00;;;11.70
75822;BMP180;64454;51.984;9.838;2023-04-24T03:05:29;98724.00;;;11.70
75822;BMP180;64454;51.984;9.838;2023-04-24T03:07:57;98718.00;;;11.60
75822;BMP180;64454;51.984;9.838;2023-04-24T03:10:24;98731.00;;;11.80
75822;BMP180;64454;51.984;9.838;2023-04-24T03:12:51;98726.00;;;11.50
75822;BMP180;64454;51.984;9.838;2023-04-24T03:15:18;98717.00;;;11.20
75822;BMP180;64454;51.984;9.838;2023-04-24T03:17:45;98723.00;;;11.20
75822;BMP180;64454;51.984;9.838;2023-04-24T03:20:12;98714.00;;;11.30
75822;BMP180;64454;51.984;9.838;2023-04-24T03:22:40;98720.00;;;11.10
75822;BMP180;64454;51.984;9.838;2023-04-24T03:25:08;98724.00;;;11.10
75822;BMP180;64454;51.984;9.838;2023-04-24T03:27:35;98731.00;;;11.10
75822;BMP180;64454;51.984;9.838;2023-04-24T03:30:03;98723.00;;;11.00
75822;BMP180;64454;51.984;9.838;2023-04-24T03:32:30;98729.00;;;11.10
75822;BMP180;64454;51.984;9.838;2023-04-24T03:34:57;98721.00;;;11.10
75822;BMP180;64454;51.984;9.838;2023-04-24T03:37:25;98722.00;;;11.10
75822;BMP180;64454;51.984;9.838;2023-04-24T03:39:53;98709.00;;;10.90
75822;BMP180;64454;51.984;9.838;2023-04-24T03:42:20;98725.00;;;10.80
75822;BMP180;64454;51.984;9.838;2023-04-24T03:44:47;98703.00;;;10.80
75822;BMP180;64454;51.984;9.838;2023-04-24T03:47:13;98713.00;;;11.00
75822;BMP180;64454;51.984;9.838;2023-04-24T03:49:40;98706.00;;;10.90
75822;BMP180;64454;51.984;9.838;2023-04-24T03:52:07;98714.00;;;11.10
75822;BMP180;64454;51.984;9.838;2023-04-24T03:54:34;98708.00;;;11.00
75822;BMP180;64454;51.984;9.838;2023-04-24T03:57:02;98713.00;;;11.00
75822;BMP180;64454;51.984;9.838;2023-04-24T03:59:30;98702.00;;;11.20
75822;BMP180;64454;51.984;9.838;2023-04-24T04:01:57;98708.00;;;11.40
75822;BMP180;64454;51.984;9.838;2023-04-24T04:04:24;98708.00;;;11.40
75822;BMP180;64454;51.984;9.838;2023-04-24T04:06:50;98704.00;;;11.30
75822;BMP180;64454;51.984;9.838;2023-04-24T04:09:19;98707.00;;;11.50
75822;BMP180;64454;51.984;9.838;2023-04-24T04:11:46;98702.00;;;11.20
75822;BMP180;64454;51.984;9.838;2023-04-24T04:14:16;98699.00;;;11.60
75822;BMP180;64454;51.984;9.838;2023-04-24T04:16:43;98706.00;;;11.50
75822;BMP180;64454;51.984;9.838;2023-04-24T04:19:10;98704.00;;;11.50
75822;BMP180;64454;51.984;9.838;2023-04-24T04:21:37;98704.00;;;11.50
75822;BMP180;64454;51.984;9.838;2023-04-24T04:24:04;98719.00;;;11.50
75822;BMP180;64454;51.984;9.838;2023-04-24T04:26:32;98724.00;;;11.50
75822;BMP180;64454;51.984;9.838;2023-04-24T04:29:01;98713.00;;;11.60
75822;BMP180;64454;51.984;9.838;2023-04-24T04:31:30;98726.00;;;11.70
75822;BMP180;64454;51.984;9.838;2023-04-24T04:33:56;98727.00;;;11.40
75822;BMP180;64454;51.984;9.838;2023-04-24T04:36:23;98722.00;;;11.60
75822;BMP180;64454;51.984;9.838;2023-04-24T04:38:51;98720.00;;;11.70
75822;BMP180;64454;51.984;9.838;2023-04-24T04:41:20;98728.00;;;11.60
75822;BMP180;64454;51.984;9.838;2023-04-24T04:43:47;98726.00;;;11.60
75822;BMP180;64454;51.984;9.838;2023-04-24T04:46:13;98728.00;;;11.70
75822;BMP180;64454;51.984;9.838;2023-04-24T04:48:42;98728.00;;;11.70
75822;BMP180;64454;51.984;9.838;2023-04-24T04:51:08;98726.00;;;11.70
75822;BMP180;64454;51.984;9.838;2023-04-24T04:53:35;98729.00;;;11.60
75822;BMP180;64454;51.984;9.838;2023-04-24T04:56:03;98732.00;;;11.70
75822;BMP180;64454;51.984;9.838;2023-04-24T04:58:30;98736.00;;;11.90
75822;BMP180;64454;51.984;9.838;2023-04-24T05:00:56;98736.00;;;11.60
75822;BMP180;64454;51.984;9.838;2023-04-24T05:03:23;98739.00;;;11.60
75822;BMP180;64454;51.984;9.838;2023-04-24T05:05:52;98733.00;;;11.70
75822;BMP180;64454;51.984;9.838;2023-04-24T05:08:18;98737.00;;;11.60
75822;BMP180;64454;51.984;9.838;2023-04-24T05:10:45;98735.00;;;11.70
75822;BMP180;64454;51.984;9.838;2023-04-24T05:13:12;98724.00;;;11.70
75822;BMP180;64454;51.984;9.838;2023-04-24T05:15:39;98732.00;;;11.80
75822;BMP180;64454;51.984;9.838;2023-04-24T05:18:06;98732.00;;;11.90
75822;BMP180;64454;51.984;9.838;2023-04-24T05:20:32;98734.00;;;11.70
75822;BMP180;64454;51.984;9.838;2023-04-24T05:23:00;98730.00;;;11.90
75822;BMP180;64454;51.984;9.838;2023-04-24T05:25:27;98725.00;;;11.50
75822;BMP180;64454;51.984;9.838;2023-04-24T05:27:54;98727.00;;;11.80
75822;BMP180;64454;51.984;9.838;2023-04-24T05:30:21;98729.00;;;11.90
75822;BMP180;64454;51.984;9.838;2023-04-24T05:32:48;98742.00;;;12.00
75822;BMP180;64454;51.984;9.838;2023-04-24T05:35:15;98736.00;;;12.00
75822;BMP180;64454;51.984;9.838;2023-04-24T05:37:42;98732.00;;;12.00
75822;BMP180;64454;51.984;9.838;2023-04-24T05:40:10;98729.00;;;11.90
75822;BMP180;64454;51.984;9.838;2023-04-24T05:42:37;98731.00;;;11.90
75822;BMP180;64454;51.984;9.838;2023-04-24T05:45:06;98735.00;;;12.30
75822;BMP180;64454;51.984;9.838;2023-04-24T05:47:33;98744.00;;;11.70
75822;BMP180;64454;51.984;9.838;2023-04-24T05:50:00;98742.00;;;11.90
75822;BMP180;64454;51.984;9.838;2023-04-24T05:52:26;98741.00;;;12.00
75822;BMP180;64454;51.984;9.838;2023-04-24T05:54:53;98736.00;;;12.10
75822;BMP180;64454;51.984;9.838;2023-04-24T05:57:21;98736.00;;;12.00
75822;BMP180;64454;51.984;9.838;2023-04-24T05:59:48;98734.00;;;11.80
75822;BMP180;64454;51.984;9.838;2023-04-24T06:02:15;98737.00;;;11.90
75822;BMP180;64454;51.984;9.838;2023-04-24T06:04:42;98739.00;;;12.30
75822;BMP180;64454;51.984;9.838;2023-04-24T06:07:10;98737.00;;;12.40
75822;BMP180;64454;51.984;9.838;2023-04-24T06:09:37;98743.00;;;12.50
75822;BMP180;64454;51.984;9.838;2023-04-24T06:12:04;98741.00;;;12.50
75822;BMP180;64454;51.984;9.838;2023-04-24T06:14:35;98763.00;;;12.00
75822;BMP180;64454;51.984;9.838;2023-04-24T06:17:01;98773.00;;;12.00
75822;BMP180;64454;51.984;9.838;2023-04-24T06:19:28;98773.00;;;11.90
75822;BMP180;64454;51.984;9.838;2023-04-24T06:21:55;98788.00;;;12.20
75822;BMP180;64454;51.984;9.838;2023-04-24T06:24:22;98788.00;;;12.20
75822;BMP180;64454;51.984;9.838;2023-04-24T06:26:49;98792.00;;;12.10
75822;BMP180;64454;51.984;9.838;2023-04-24T06:29:18;98787.00;;;12.00
75822;BMP180;64454;51.984;9.838;2023-04-24T06:31:47;98795.00;;;11.90
75822;BMP180;64454;51.984;9.838;2023-04-24T06:34:15;98784.00;;;12.00
75822;BMP180;64454;51.984;9.838;2023-04-24T06:36:43;98778.00;;;11.80
75822;BMP180;64454;51.984;9.838;2023-04-24T06:39:10;98772.00;;;12.00
75822;BMP180;64454;51.984;9.838;2023-04-24T06:41:37;98775.00;;;12.40
75822;BMP180;64454;51.984;9.838;2023-04-24T06:44:05;98780.00;;;12.20
75822;BMP180;64454;51.984;9.838;2023-04-24T06:46:32;98787.00;;;11.80
75822;BMP180;64454;51.984;9.838;2023-04-24T06:49:00;98784.00;;;12.20
75822;BMP180;64454;51.984;9.838;2023-04-24T06:51:27;98782.00;;;12.40
75822;BMP180;64454;51.984;9.838;2023-04-24T06:53:54;98784.00;;;12.70
75822;BMP180;64454;51.984;9.838;2023-04-24T06:56:22;98778.00;;;12.50
75822;BMP180;64454;51.984;9.838;2023-04-24T06:58:49;98778.00;;;12.50
75822;BMP180;64454;51.984;9.838;2023-04-24T07:01:16;98775.00;;;12.80
75822;BMP180;64454;51.984;9.838;2023-04-24T07:03:43;98777.00;;;12.70
75822;BMP180;64454;51.984;9.838;2023-04-24T07:06:11;98791.00;;;13.00
75822;BMP180;64454;51.984;9.838;2023-04-24T07:08:38;98780.00;;;12.70
75822;BMP180;64454;51.984;9.838;2023-04-24T07:11:07;98786.00;;;12.10
75822;BMP180;64454;51.984;9.838;2023-04-24T07:13:34;98799.00;;;11.70
75822;BMP180;64454;51.984;9.838;2023-04-24T07:16:01;98798.00;;;11.90
75822;BMP180;64454;51.984;9.838;2023-04-24T07:18:28;98802.00;;;12.50
75822;BMP180;64454;51.984;9.838;2023-04-24T07:20:54;98799.00;;;12.30
75822;BMP180;64454;51.984;9.838;2023-04-24T07:23:23;98832.00;;;12.40
75822;BMP180;64454;51.984;9.838;2023-04-24T07:25:50;98803.00;;;12.50
75822;BMP180;64454;51.984;9.838;2023-04-24T07:28:17;98810.00;;;12.80
75822;BMP180;64454;51.984;9.838;2023-04-24T07:30:44;98815.00;;;13.00
75822;BMP180;64454;51.984;9.838;2023-04-24T07:33:10;98816.00;;;12.90
75822;BMP180;64454;51.984;9.838;2023-04-24T07:35:38;98811.00;;;13.30
75822;BMP180;64454;51.984;9.838;2023-04-24T07:38:05;98812.00;;;13.90
75822;BMP180;64454;51.984;9.838;2023-04-24T07:40:33;98817.00;;;14.40
75822;BMP180;64454;51.984;9.838;2023-04-24T07:43:00;98824.00;;;14.10
75822;BMP180;64454;51.984;9.838;2023-04-24T07:45:27;98811.00;;;14.10
75822;BMP180;64454;51.984;9.838;2023-04-24T07:47:54;98800.00;;;13.50
75822;BMP180;64454;51.984;9.838;2023-04-24T07:50:21;98805.00;;;13.10
75822;BMP180;64454;51.984;9.838;2023-04-24T07:52:48;98815.00;;;13.50
75822;BMP180;64454;51.984;9.838;2023-04-24T07:55:15;98807.00;;;13.80
75822;BMP180;64454;51.984;9.838;2023-04-24T07:57:43;98805.00;;;14.90
75822;BMP180;64454;51.984;9.838;2023-04-24T08:00:11;98814.00;;;15.80
75822;BMP180;64454;51.984;9.838;2023-04-24T08:02:39;98811.00;;;16.20
75822;BMP180;64454;51.984;9.838;2023-04-24T08:05:06;98799.00;;;17.20
75822;BMP180;64454;51.984;9.838;2023-04-24T08:07:33;98825.00;;;15.80
75822;BMP180;64454;51.984;9.838;2023-04-24T08:10:00;98808.00;;;15.20
75822;BMP180;64454;51.984;9.838;2023-04-24T08:12:28;98830.00;;;14.80
75822;BMP180;64454;51.984;9.838;2023-04-24T08:14:56;98806.00;;;15.00
75822;BMP180;64454;51.984;9.838;2023-04-24T08:17:24;98800.00;;;15.70
75822;BMP180;64454;51.984;9.838;2023-04-24T08:19:50;98855.00;;;16.00
75822;BMP180;64454;51.984;9.838;2023-04-24T08:22:19;98826.00;;;14.90
75822;BMP180;64454;51.984;9.838;2023-04-24T08:24:45;98835.00;;;14.20
75822;BMP180;64454;51.984;9.838;2023-04-24T08:27:12;98835.00;;;15.40
75822;BMP180;64454;51.984;9.838;2023-04-24T08:29:39;98829.00;;;14.90
75822;BMP180;64454;51.984;9.838;2023-04-24T08:32:07;98827.00;;;14.70
75822;BMP180;64454;51.984;9.838;2023-04-24T08:34:34;98834.00;;;14.40
75822;BMP180;64454;51.984;9.838;2023-04-24T08:37:01;98835.00;;;14.20
75822;BMP180;64454;51.984;9.838;2023-04-24T08:39:28;98806.00;;;14.80
75822;BMP180;64454;51.984;9.838;2023-04-24T08:41:55;98834.00;;;16.10
75822;BMP180;64454;51.984;9.838;2023-04-24T08:44:22;98827.00;;;17.00
75822;BMP180;64454;51.984;9.838;2023-04-24T08:46:49;98843.00;;;17.40
75822;BMP180;64454;51.984;9.838;2023-04-24T08:49:20;98852.00;;;17.30
75822;BMP180;64454;51.984;9.838;2023-04-24T08:51:49;98847.00;;;16.30
75822;BMP180;64454;51.984;9.838;2023-04-24T08:54:19;98854.00;;;15.00
75822;BMP180;64454;51.984;9.838;2023-04-24T08:56:48;98858.00;;;14.80
75822;BMP180;64454;51.984;9.838;2023-04-24T08:59:19;98821.00;;;15.50
75822;BMP180;64454;51.984;9.838;2023-04-24T09:01:50;98848.00;;;17.00
75822;BMP180;64454;51.984;9.838;2023-04-24T09:04:22;98850.00;;;17.50
75822;BMP180;64454;51.984;9.838;2023-04-24T09:06:50;98856.00;;;16.10
75822;BMP180;64454;51.984;9.838;2023-04-24T09:09:19;98859.00;;;14.70
75822;BMP180;64454;51.984;9.838;2023-04-24T09:11:48;98854.00;;;14.50
75822;BMP180;64454;51.984;9.838;2023-04-24T09:14:17;98863.00;;;14.80
75822;BMP180;64454;51.984;9.838;2023-04-24T09:16:46;98870.00;;;14.40
75822;BMP180;64454;51.984;9.838;2023-04-24T09:19:14;98863.00;;;13.70
75822;BMP180;64454;51.984;9.838;2023-04-24T09:21:46;98868.00;;;13.60
75822;BMP180;64454;51.984;9.838;2023-04-24T09:24:18;98874.00;;;13.10
75822;BMP180;64454;51.984;9.838;2023-04-24T09:26:48;98878.00;;;13.50
75822;BMP180;64454;51.984;9.838;2023-04-24T09:29:18;98886.00;;;13.20
75822;BMP180;64454;51.984;9.838;2023-04-24T09:31:46;98899.00;;;12.50
75822;BMP180;64454;51.984;9.838;2023-04-24T09:34:14;98881.00;;;12.50
75822;BMP180;64454;51.984;9.838;2023-04-24T09:36:44;98894.00;;;12.10
75822;BMP180;64454;51.984;9.838;2023-04-24T09:39:13;98891.00;;;13.00
75822;BMP180;64454;51.984;9.838;2023-04-24T09:41:46;98880.00;;;12.70
75822;BMP180;64454;51.984;9.838;2023-04-24T09:44:16;98888.00;;;13.10
75822;BMP180;64454;51.984;9.838;2023-04-24T09:46:49;98881.00;;;13.10
75822;BMP180;64454;51.984;9.838;2023-04-24T09:49:23;98886.00;;;13.30
75822;BMP180;64454;51.984;9.838;2023-04-24T09:51:52;98888.00;;;13.10
75822;BMP180;64454;51.984;9.838;2023-04-24T09:54:28;98899.00;;;12.70
75822;BMP180;64454;51.984;9.838;2023-04-24T09:56:55;98890.00;;;12.40
75822;BMP180;64454;51.984;9.838;2023-04-24T09:59:22;98902.00;;;12.10
75822;BMP180;64454;51.984;9.838;2023-04-24T10:01:49;98905.00;;;12.30
75822;BMP180;64454;51.984;9.838;2023-04-24T10:04:21;98897.00;;;12.30
75822;BMP180;64454;51.984;9.838;2023-04-24T10:06:52;98902.00;;;12.00
75822;BMP180;64454;51.984;9.838;2023-04-24T10:09:21;98902.00;;;12.10
75822;BMP180;64454;51.984;9.838;2023-04-24T10:11:50;98901.00;;;11.90
75822;BMP180;64454;51.984;9.838;2023-04-24T10:14:22;98895.00;;;12.10
75822;BMP180;64454;51.984;9.838;2023-04-24T10:16:51;98887.00;;;12.20
75822;BMP180;64454;51.984;9.838;2023-04-24T10:19:20;98882.00;;;12.30
75822;BMP180;64454;51.984;9.838;2023-04-24T10:21:50;98879.00;;;12.30
75822;BMP180;64454;51.984;9.838;2023-04-24T10:24:19;98882.00;;;12.80
75822;BMP180;64454;51.984;9.838;2023-04-24T10:26:47;98877.00;;;12.90
75822;BMP180;64454;51.984;9.838;2023-04-24T10:29:18;98884.00;;;12.60
75822;BMP180;64454;51.984;9.838;2023-04-24T10:31:47;98878.00;;;12.80
75822;BMP180;64454;51.984;9.838;2023-04-24T10:34:18;98876.00;;;12.20
75822;BMP180;64454;51.984;9.838;2023-04-24T10:36:52;98879.00;;;12.70
75822;BMP180;64454;51.984;9.838;2023-04-24T10:39:20;98864.00;;;12.90
75822;BMP180;64454;51.984;9.838;2023-04-24T10:41:49;98876.00;;;12.90
75822;BMP180;64454;51.984;9.838;2023-04-24T10:44:16;98876.00;;;12.50
75822;BMP180;64454;51.984;9.838;2023-04-24T10:46:46;98891.00;;;12.50
75822;BMP180;64454;51.984;9.838;2023-04-24T10:49:15;98894.00;;;12.70
75822;BMP180;64454;51.984;9.838;2023-04-24T10:51:46;98903.00;;;12.70
75822;BMP180;64454;51.984;9.838;2023-04-24T10:54:26;98889.00;;;12.80
75822;BMP180;64454;51.984;9.838;2023-04-24T10:56:56;98892.00;;;13.00
75822;BMP180;64454;51.984;9.838;2023-04-24T10:59:40;98897.00;;;12.70
75822;BMP180;64454;51.984;9.838;2023-04-24T11:02:08;98902.00;;;13.00
75822;BMP180;64454;51.984;9.838;2023-04-24T11:04:35;98894.00;;;13.00
75822;BMP180;64454;51.984;9.838;2023-04-24T11:07:03;98901.00;;;12.80
75822;BMP180;64454;51.984;9.838;2023-04-24T11:09:32;98899.00;;;12.80
75822;BMP180;64454;51.984;9.838;2023-04-24T11:12:05;98898.00;;;12.70
75822;BMP180;64454;51.984;9.838;2023-04-24T11:15:00;98894.00;;;13.00
75822;BMP180;64454;51.984;9.838;2023-04-24T11:17:32;98900.00;;;13.00
75822;BMP180;64454;51.984;9.838;2023-04-24T11:20:03;98893.00;;;13.50
75822;BMP180;64454;51.984;9.838;2023-04-24T11:22:34;98895.00;;;13.60
75822;BMP180;64454;51.984;9.838;2023-04-24T11:25:04;98897.00;;;13.60
75822;BMP180;64454;51.984;9.838;2023-04-24T11:27:38;98898.00;;;13.10
75822;BMP180;64454;51.984;9.838;2023-04-24T11:30:07;98908.00;;;12.30
75822;BMP180;64454;51.984;9.838;2023-04-24T11:32:36;98921.00;;;12.50
75822;BMP180;64454;51.984;9.838;2023-04-24T11:35:08;98910.00;;;12.30
75822;BMP180;64454;51.984;9.838;2023-04-24T11:37:37;98913.00;;;12.20
75822;BMP180;64454;51.984;9.838;2023-04-24T11:40:08;98934.00;;;12.10
75822;BMP180;64454;51.984;9.838;2023-04-24T11:42:36;98940.00;;;11.60
75822;BMP180;64454;51.984;9.838;2023-04-24T11:45:09;98936.00;;;12.20
75822;BMP180;64454;51.984;9.838;2023-04-24T11:47:37;98944.00;;;12.10
75822;BMP180;64454;51.984;9.838;2023-04-24T11:50:07;98932.00;;;12.00
75822;BMP180;64454;51.984;9.838;2023-04-24T11:52:38;98946.00;;;11.50
75822;BMP180;64454;51.984;9.838;2023-04-24T11:55:22;98950.00;;;12.10
75822;BMP180;64454;51.984;9.838;2023-04-24T11:57:54;98936.00;;;12.10
75822;BMP180;64454;51.984;9.838;2023-04-24T12:00:25;98938.00;;;12.10
75822;BMP180;64454;51.984;9.838;2023-04-24T12:03:04;98941.00;;;11.50
75822;BMP180;64454;51.984;9.838;2023-04-24T12:05:31;98949.00;;;11.80
75822;BMP180;64454;51.984;9.838;2023-04-24T12:07:58;98942.00;;;11.70
75822;BMP180;64454;51.984;9.838;2023-04-24T12:10:29;98946.00;;;11.90
75822;BMP180;64454;51.984;9.838;2023-04-24T12:12:57;98933.00;;;12.10
75822;BMP180;64454;51.984;9.838;2023-04-24T12:15:25;98940.00;;;11.80
75822;BMP180;64454;51.984;9.838;2023-04-24T12:17:54;98944.00;;;11.90
75822;BMP180;64454;51.984;9.838;2023-04-24T12:20:26;98949.00;;;12.00
75822;BMP180;64454;51.984;9.838;2023-04-24T12:22:54;98951.00;;;12.00
75822;BMP180;64454;51.984;9.838;2023-04-24T12:25:24;98970.00;;;12.40
75822;BMP180;64454;51.984;9.838;2023-04-24T12:28:08;98964.00;;;12.10
75822;BMP180;64454;51.984;9.838;2023-04-24T12:30:42;98966.00;;;12.50
75822;BMP180;64454;51.984;9.838;2023-04-24T12:33:10;98962.00;;;12.60
75822;BMP180;64454;51.984;9.838;2023-04-24T12:35:37;98971.00;;;12.80
75822;BMP180;64454;51.984;9.838;2023-04-24T12:38:07;98977.00;;;12.40
75822;BMP180;64454;51.984;9.838;2023-04-24T12:40:34;99000.00;;;12.70
75822;BMP180;64454;51.984;9.838;2023-04-24T12:43:13;98990.00;;;12.60
75822;BMP180;64454;51.984;9.838;2023-04-24T12:45:40;98989.00;;;12.90
75822;BMP180;64454;51.984;9.838;2023-04-24T12:48:07;99003.00;;;13.00
75822;BMP180;64454;51.984;9.838;2023-04-24T12:50:34;99004.00;;;13.30
75822;BMP180;64454;51.984;9.838;2023-04-24T12:53:00;99014.00;;;12.80
75822;BMP180;64454;51.984;9.838;2023-04-24T12:55:27;99000.00;;;12.70
75822;BMP180;64454;51.984;9.838;2023-04-24T12:57:54;99004.00;;;12.50
75822;BMP180;64454;51.984;9.838;2023-04-24T13:00:23;99009.00;;;12.40
75822;BMP180;64454;51.984;9.838;2023-04-24T13:02:50;99013.00;;;12.40
75822;BMP180;64454;51.984;9.838;2023-04-24T13:05:17;99028.00;;;11.90
75822;BMP180;64454;51.984;9.838;2023-04-24T13:07:43;99029.00;;;11.70
75822;BMP180;64454;51.984;9.838;2023-04-24T13:10:10;99025.00;;;11.90
75822;BMP180;64454;51.984;9.838;2023-04-24T13:12:39;99034.00;;;11.60
75822;BMP180;64454;51.984;9.838;2023-04-24T13:15:07;99037.00;;;11.80
75822;BMP180;64454;51.984;9.838;2023-04-24T13:17:35;99035.00;;;11.70
75822;BMP180;64454;51.984;9.838;2023-04-24T13:20:03;99037.00;;;11.80
75822;BMP180;64454;51.984;9.838;2023-04-24T13:22:29;99037.00;;;11.60
75822;BMP180;64454;51.984;9.838;2023-04-24T13:24:56;99043.00;;;11.50
75822;BMP180;64454;51.984;9.838;2023-04-24T13:27:23;99055.00;;;11.80
75822;BMP180;64454;51.984;9.838;2023-04-24T13:29:50;99051.00;;;12.00
75822;BMP180;64454;51.984;9.838;2023-04-24T13:32:17;99060.00;;;12.10
75822;BMP180;64454;51.984;9.838;2023-04-24T13:34:45;99075.00;;;11.90
75822;BMP180;64454;51.984;9.838;2023-04-24T13:37:12;99065.00;;;11.40
75822;BMP180;64454;51.984;9.838;2023-04-24T13:39:39;99079.00;;;11.70
75822;BMP180;64454;51.984;9.838;2023-04-24T13:42:07;99092.00;;;11.60
75822;BMP180;64454;51.984;9.838;2023-04-24T13:44:34;99074.00;;;11.60
75822;BMP180;64454;51.984;9.838;2023-04-24T13:47:00;99097.00;;;11.40
75822;BMP180;64454;51.984;9.838;2023-04-24T13:49:28;99088.00;;;11.50
75822;BMP180;64454;51.984;9.838;2023-04-24T13:51:56;99104.00;;;12.00
75822;BMP180;64454;51.984;9.838;2023-04-24T13:54:23;99096.00;;;11.80
75822;BMP180;64454;51.984;9.838;2023-04-24T13:56:51;99094.00;;;11.90
75822;BMP180;64454;51.984;9.838;2023-04-24T13:59:20;99110.00;;;11.90
75822;BMP180;64454;51.984;9.838;2023-04-24T14:01:47;99111.00;;;11.60
75822;BMP180;64454;51.984;9.838;2023-04-24T14:04:16;99118.00;;;11.50
75822;BMP180;64454;51.984;9.838;2023-04-24T14:06:44;99114.00;;;11.80
75822;BMP180;64454;51.984;9.838;2023-04-24T14:09:12;99120.00;;;12.00
75822;BMP180;64454;51.984;9.838;2023-04-24T14:11:40;99122.00;;;12.10
75822;BMP180;64454;51.984;9.838;2023-04-24T14:14:07;99126.00;;;12.00